DLH2015 EDDF-EGKK
Flight info
| Callsign | DLH2015 |
|---|---|
| Flight time | N/A |
| Altitude | 36000 |
| Route | OBOKA5G/25C OBOKA Z29 TORNU DCT BREDA DCT VICOT DCT GALSO Q63 ARREK Y4 TEBRA DCT ABTUM DCT ARNUN DCT LARCK |
| Aircraft | A359/H-SDE2E3GHIJ3J4J5LM1ORWXY/LB1D1 |
Departure
| Time | 2026-05-07 15:27 |
|---|---|
| Airport | Frankfurt Main Airport (EDDF) |
Arrival
| Time | N/A |
|---|---|
| Airport | London Gatwick Airport (EGKK) |
| Time | Latitude | Longitude | Altitude | Speed | Heading |
|---|---|---|---|---|---|
| 2026-05-07 15:19 | 50.04636 | 8.56258 | 369 ft | 0 kts | 239° |
| 2026-05-07 15:21 | 50.04636 | 8.56257 | 369 ft | 0 kts | 239° |
| 2026-05-07 15:21 | 50.04630 | 8.56241 | 369 ft | 3 kts | 239° |
| 2026-05-07 15:21 | 50.04614 | 8.56196 | 368 ft | 6 kts | 241° |
| 2026-05-07 15:21 | 50.04592 | 8.56119 | 370 ft | 9 kts | 248° |
| 2026-05-07 15:22 | 50.04563 | 8.56014 | 368 ft | 11 kts | 244° |
| 2026-05-07 15:22 | 50.04513 | 8.55951 | 370 ft | 9 kts | 204° |
| 2026-05-07 15:22 | 50.04448 | 8.55919 | 371 ft | 11 kts | 193° |
| 2026-05-07 15:22 | 50.04365 | 8.55923 | 368 ft | 13 kts | 163° |
| 2026-05-07 15:23 | 50.04268 | 8.55952 | 363 ft | 15 kts | 191° |
| 2026-05-07 15:23 | 50.04167 | 8.55932 | 366 ft | 16 kts | 167° |
| 2026-05-07 15:23 | 50.04085 | 8.56032 | 365 ft | 15 kts | 99° |
| 2026-05-07 15:23 | 50.04107 | 8.56194 | 367 ft | 16 kts | 71° |
| 2026-05-07 15:24 | 50.04148 | 8.56367 | 365 ft | 18 kts | 70° |
| 2026-05-07 15:24 | 50.04193 | 8.56558 | 369 ft | 20 kts | 70° |
| 2026-05-07 15:24 | 50.04242 | 8.56761 | 371 ft | 20 kts | 68° |
| 2026-05-07 15:24 | 50.04293 | 8.56972 | 373 ft | 22 kts | 70° |
| 2026-05-07 15:25 | 50.04348 | 8.57202 | 371 ft | 24 kts | 69° |
| 2026-05-07 15:25 | 50.04409 | 8.57453 | 368 ft | 26 kts | 69° |
| 2026-05-07 15:25 | 50.04474 | 8.57719 | 376 ft | 27 kts | 69° |
| 2026-05-07 15:25 | 50.04541 | 8.58002 | 375 ft | 29 kts | 70° |
| 2026-05-07 15:26 | 50.04610 | 8.58307 | 377 ft | 29 kts | 70° |
| 2026-05-07 15:26 | 50.04643 | 8.58540 | 376 ft | 9 kts | 123° |
| 2026-05-07 15:26 | 50.04589 | 8.58590 | 375 ft | 10 kts | 162° |
| 2026-05-07 15:26 | 50.04504 | 8.58590 | 376 ft | 15 kts | 209° |
| 2026-05-07 15:27 | 50.04441 | 8.58399 | 375 ft | 38 kts | 249° |
| 2026-05-07 15:27 | 50.04251 | 8.57606 | 370 ft | 116 kts | 250° |
| 2026-05-07 15:27 | 50.03906 | 8.56131 | 504 ft | 166 kts | 251° |
| 2026-05-07 15:27 | 50.03518 | 8.54466 | 1334 ft | 160 kts | 250° |
| 2026-05-07 15:28 | 50.03104 | 8.52784 | 1866 ft | 176 kts | 251° |
| 2026-05-07 15:28 | 50.02745 | 8.50845 | 2163 ft | 195 kts | 265° |
| 2026-05-07 15:28 | 50.02766 | 8.48661 | 2551 ft | 210 kts | 277° |
| 2026-05-07 15:28 | 50.02919 | 8.46341 | 3089 ft | 220 kts | 278° |
| 2026-05-07 15:29 | 50.02937 | 8.43946 | 3819 ft | 225 kts | 266° |
| 2026-05-07 15:29 | 50.02703 | 8.41436 | 4286 ft | 244 kts | 261° |
| 2026-05-07 15:29 | 50.02386 | 8.38788 | 4904 ft | 253 kts | 260° |
| 2026-05-07 15:29 | 50.02054 | 8.36088 | 5654 ft | 256 kts | 260° |
| 2026-05-07 15:30 | 50.01719 | 8.33344 | 6418 ft | 260 kts | 260° |
| 2026-05-07 15:30 | 50.01397 | 8.30556 | 7136 ft | 264 kts | 263° |
| 2026-05-07 15:30 | 50.01433 | 8.27708 | 7860 ft | 266 kts | 283° |
| 2026-05-07 15:30 | 50.02046 | 8.24990 | 8547 ft | 269 kts | 293° |
| 2026-05-07 15:31 | 50.02822 | 8.22330 | 9077 ft | 271 kts | 295° |
| 2026-05-07 15:31 | 50.03626 | 8.19643 | 9434 ft | 276 kts | 295° |
| 2026-05-07 15:31 | 50.04427 | 8.16943 | 9451 ft | 276 kts | 294° |
| 2026-05-07 15:31 | 50.05226 | 8.14224 | 9446 ft | 276 kts | 294° |
| 2026-05-07 15:32 | 50.06157 | 8.11597 | 9473 ft | 277 kts | 304° |
| 2026-05-07 15:32 | 50.07326 | 8.09208 | 9890 ft | 279 kts | 308° |
| 2026-05-07 15:32 | 50.08561 | 8.06822 | 10418 ft | 289 kts | 308° |
| 2026-05-07 15:32 | 50.09860 | 8.04315 | 10696 ft | 306 kts | 308° |
| 2026-05-07 15:33 | 50.11234 | 8.01654 | 10965 ft | 323 kts | 308° |
| 2026-05-07 15:33 | 50.12670 | 7.98865 | 11273 ft | 336 kts | 308° |
| 2026-05-07 15:33 | 50.14150 | 7.95989 | 11755 ft | 343 kts | 308° |
| 2026-05-07 15:33 | 50.15653 | 7.93062 | 12311 ft | 348 kts | 308° |
| 2026-05-07 15:34 | 50.17170 | 7.90105 | 12885 ft | 351 kts | 308° |
| 2026-05-07 15:34 | 50.18703 | 7.87112 | 13461 ft | 354 kts | 308° |
| 2026-05-07 15:34 | 50.20246 | 7.84094 | 14012 ft | 357 kts | 308° |
| 2026-05-07 15:34 | 50.21806 | 7.81040 | 14514 ft | 361 kts | 308° |
| 2026-05-07 15:35 | 50.23379 | 7.77959 | 14997 ft | 365 kts | 307° |
| 2026-05-07 15:35 | 50.25067 | 7.74993 | 15535 ft | 368 kts | 316° |
| 2026-05-07 15:35 | 50.27170 | 7.72684 | 16012 ft | 374 kts | 331° |
| 2026-05-07 15:35 | 50.29532 | 7.70956 | 16549 ft | 377 kts | 335° |
| 2026-05-07 15:36 | 50.31957 | 7.69318 | 17089 ft | 380 kts | 335° |
| 2026-05-07 15:36 | 50.34357 | 7.67701 | 17585 ft | 383 kts | 335° |
| 2026-05-07 15:36 | 50.36846 | 7.66012 | 18127 ft | 386 kts | 335° |
| 2026-05-07 15:36 | 50.39285 | 7.64346 | 18572 ft | 389 kts | 335° |
| 2026-05-07 15:37 | 50.41808 | 7.62618 | 19038 ft | 392 kts | 335° |
| 2026-05-07 15:37 | 50.44278 | 7.60922 | 19498 ft | 394 kts | 335° |
| 2026-05-07 15:37 | 50.46796 | 7.59190 | 19968 ft | 396 kts | 335° |
| 2026-05-07 15:37 | 50.49333 | 7.57441 | 20427 ft | 399 kts | 335° |
| 2026-05-07 15:38 | 50.51875 | 7.55686 | 20869 ft | 401 kts | 335° |
| 2026-05-07 15:38 | 50.54436 | 7.53910 | 21348 ft | 403 kts | 334° |
| 2026-05-07 15:38 | 50.56909 | 7.51827 | 21796 ft | 404 kts | 327° |
| 2026-05-07 15:38 | 50.59289 | 7.49450 | 22229 ft | 406 kts | 326° |
| 2026-05-07 15:39 | 50.61664 | 7.47012 | 22642 ft | 409 kts | 325° |
| 2026-05-07 15:39 | 50.64054 | 7.44554 | 22999 ft | 413 kts | 325° |
| 2026-05-07 15:39 | 50.66473 | 7.42067 | 23361 ft | 417 kts | 325° |
| 2026-05-07 15:39 | 50.68907 | 7.39563 | 23764 ft | 419 kts | 325° |
| 2026-05-07 15:40 | 50.71344 | 7.37022 | 24115 ft | 421 kts | 323° |
| 2026-05-07 15:40 | 50.73600 | 7.34089 | 24469 ft | 420 kts | 313° |
| 2026-05-07 15:40 | 50.75454 | 7.30526 | 24851 ft | 420 kts | 302° |
| 2026-05-07 15:40 | 50.76958 | 7.26567 | 25235 ft | 421 kts | 298° |
| 2026-05-07 15:41 | 50.78349 | 7.22472 | 25638 ft | 423 kts | 296° |
| 2026-05-07 15:41 | 50.79683 | 7.18312 | 26033 ft | 425 kts | 295° |
| 2026-05-07 15:41 | 50.81003 | 7.14117 | 26456 ft | 428 kts | 295° |
| 2026-05-07 15:41 | 50.82333 | 7.09890 | 26890 ft | 430 kts | 296° |
| 2026-05-07 15:42 | 50.83678 | 7.05648 | 27335 ft | 433 kts | 296° |
| 2026-05-07 15:42 | 50.85040 | 7.01386 | 27787 ft | 436 kts | 296° |
| 2026-05-07 15:42 | 50.86415 | 6.97102 | 28255 ft | 438 kts | 296° |
| 2026-05-07 15:42 | 50.87806 | 6.92783 | 28748 ft | 441 kts | 296° |
| 2026-05-07 15:43 | 50.89204 | 6.88440 | 29235 ft | 444 kts | 296° |
| 2026-05-07 15:43 | 50.90613 | 6.84061 | 29767 ft | 447 kts | 296° |
| 2026-05-07 15:43 | 50.92027 | 6.79655 | 30205 ft | 450 kts | 296° |
| 2026-05-07 15:43 | 50.93450 | 6.75214 | 30613 ft | 453 kts | 296° |
| 2026-05-07 15:44 | 50.94879 | 6.70742 | 31022 ft | 456 kts | 296° |
| 2026-05-07 15:44 | 50.96314 | 6.66244 | 31418 ft | 459 kts | 296° |
| 2026-05-07 15:44 | 50.97758 | 6.61709 | 31816 ft | 461 kts | 296° |
| 2026-05-07 15:44 | 50.99205 | 6.57155 | 32222 ft | 463 kts | 296° |
| 2026-05-07 15:45 | 51.00654 | 6.52587 | 32602 ft | 465 kts | 296° |
| 2026-05-07 15:45 | 51.02110 | 6.47988 | 32952 ft | 467 kts | 296° |
| 2026-05-07 15:45 | 51.03573 | 6.43354 | 33285 ft | 470 kts | 296° |
| 2026-05-07 15:45 | 51.05038 | 6.38707 | 33661 ft | 471 kts | 296° |
| 2026-05-07 15:46 | 51.07966 | 6.29400 | 34536 ft | 470 kts | 295° |
| 2026-05-07 15:46 | 51.09405 | 6.24809 | 34840 ft | 471 kts | 295° |
| 2026-05-07 15:46 | 51.10864 | 6.20148 | 35155 ft | 472 kts | 295° |
| 2026-05-07 15:47 | 51.12327 | 6.15465 | 35478 ft | 473 kts | 295° |
| 2026-05-07 15:47 | 51.13671 | 6.10683 | 35777 ft | 473 kts | 289° |
| 2026-05-07 15:47 | 51.14682 | 6.05691 | 36007 ft | 475 kts | 285° |